»·PEaware :: DAL2473 KLAX-KSFO

DAL2473 :: KLAX-KSFO

FLIGHT INFORMATION

Flight Status: Arrived
Operator:
Delta Air Lines
More flights by this operator :: More flights under this callsign
Pilot: Alfredo R. (12181)
Aircraft: BOEING 737-800
(B738)
More flights by this aircraft type
Origin: KLAX Los Angeles Intl
United States
Destination: KSFO San Francisco Intl
United States
More flights between these airports :: More routes between these airports
Route: SUMMR2 STOKD SERFR SERFR3
File this flight plan on PilotEdge
Remarks:
Altitude:
(Current/Filed)
380ft
Speed:
(Current/Filed)
425kts
Departed: 13-Oct-19 04:26 PM
Arrived: 13-Oct-19 05:19 PM
Distance/Time
Traveled:
293nm/0:53
Distance/Time
To Go:
Arrived

Flight Plot

Page will automatically refresh every two minutes.

Flight plan parsing failed; only flown route is shown


Map Options




Map Legend


Flown Route
Filed Route
Departure Airport
Arrival Airport
Navaid (VOR, NDB)
Fix

Horizontal Profiles

Position Reports

Time Latitude Longitude Heading Altitude Ground
Speed
13-Oct-19 15:48 33.946933 -118.404864 114 119ft 0kts
13-Oct-19 15:49 33.946933 -118.404864 114 119ft 0kts
13-Oct-19 15:50 33.946933 -118.404864 114 119ft 0kts
13-Oct-19 15:52 33.946933 -118.404864 114 119ft 0kts
13-Oct-19 15:53 33.946933 -118.404864 114 119ft 0kts
13-Oct-19 15:54 33.946933 -118.404864 114 119ft 0kts
13-Oct-19 15:55 33.946933 -118.404864 114 119ft 0kts
13-Oct-19 15:56 33.946933 -118.404864 114 119ft 0kts
13-Oct-19 15:57 33.946933 -118.404864 114 119ft 0kts
13-Oct-19 15:58 33.946933 -118.404864 114 119ft 0kts
13-Oct-19 15:59 33.946933 -118.404864 114 119ft 0kts
13-Oct-19 16:00 33.946933 -118.404864 114 119ft 0kts
13-Oct-19 16:01 33.946933 -118.404864 114 119ft 0kts
13-Oct-19 16:02 33.946933 -118.404864 114 119ft 0kts
13-Oct-19 16:03 33.946933 -118.404864 114 119ft 0kts
13-Oct-19 16:04 33.946933 -118.404864 114 119ft 0kts
13-Oct-19 16:05 33.946933 -118.404864 114 119ft 0kts
13-Oct-19 16:06 33.946933 -118.404864 114 119ft 0kts
13-Oct-19 16:07 33.946933 -118.404864 114 119ft 0kts
13-Oct-19 16:08 33.946933 -118.404864 114 119ft 0kts
13-Oct-19 16:09 33.946933 -118.404864 114 119ft 0kts
13-Oct-19 16:10 33.946933 -118.404864 114 119ft 0kts
13-Oct-19 16:10 33.946934 -118.404864 114 119ft 0kts
13-Oct-19 16:12 33.947096 -118.405293 115 119ft 2kts
13-Oct-19 16:13 33.946760 -118.405735 6 119ft 2kts
13-Oct-19 16:13 33.946618 -118.405727 353 119ft 6kts
13-Oct-19 16:14 33.947343 -118.405828 352 119ft 0kts
13-Oct-19 16:15 33.947343 -118.405828 352 119ft 0kts
13-Oct-19 16:17 33.947343 -118.405828 352 119ft 0kts
13-Oct-19 16:17 33.947343 -118.405828 352 119ft 0kts
13-Oct-19 16:18 33.947343 -118.405828 352 119ft 0kts
13-Oct-19 16:20 33.948681 -118.405506 76 119ft 4kts
13-Oct-19 16:20 33.948820 -118.404276 83 119ft 7kts
13-Oct-19 16:21 33.949233 -118.401827 32 116ft 0kts
13-Oct-19 16:22 33.949233 -118.401827 32 116ft 0kts
13-Oct-19 16:23 33.949239 -118.401822 32 116ft 0kts
13-Oct-19 16:24 33.949982 -118.403734 262 117ft 20kts
13-Oct-19 16:25 33.947398 -118.434144 267 536ft 155kts
13-Oct-19 16:26 33.943445 -118.493902 266 2072ft 210kts
13-Oct-19 16:27 33.937813 -118.575216 263 4573ft 263kts
13-Oct-19 16:28 33.930529 -118.666115 262 7833ft 279kts
13-Oct-19 16:29 33.922689 -118.765227 263 10488ft 313kts
13-Oct-19 16:30 33.917915 -118.877140 270 13198ft 329kts
13-Oct-19 16:31 33.921584 -118.990459 273 16703ft 335kts
13-Oct-19 16:32 33.963292 -119.097418 297 19716ft 356kts
13-Oct-19 16:33 34.023168 -119.198147 315 22388ft 378kts
13-Oct-19 16:34 34.103406 -119.267220 319 24457ft 390kts
13-Oct-19 16:35 34.194854 -119.345810 319 26640ft 402kts
13-Oct-19 16:36 34.288293 -119.426462 318 28446ft 416kts
13-Oct-19 16:37 34.385355 -119.510482 318 30158ft 426kts
13-Oct-19 16:38 34.472880 -119.607133 308 31970ft 423kts
13-Oct-19 16:39 34.555137 -119.708647 307 33972ft 419kts
13-Oct-19 16:40 34.636251 -119.809002 307 35695ft 414kts
13-Oct-19 16:41 34.716509 -119.908544 306 37059ft 412kts
13-Oct-19 16:42 34.796492 -120.008047 307 37928ft 419kts
13-Oct-19 16:43 34.879267 -120.111339 308 37946ft 427kts
13-Oct-19 16:44 34.962756 -120.215776 308 37947ft 434kts
13-Oct-19 16:45 35.046841 -120.321189 308 37947ft 430kts
13-Oct-19 16:46 35.132786 -120.424049 312 37941ft 433kts
13-Oct-19 16:47 35.222034 -120.523815 312 37922ft 433kts
13-Oct-19 16:48 35.310812 -120.623505 312 37922ft 435kts
13-Oct-19 16:49 35.399452 -120.723431 312 37930ft 434kts
13-Oct-19 16:50 35.487893 -120.823077 315 37892ft 432kts
13-Oct-19 16:51 35.583990 -120.912295 318 37887ft 429kts
13-Oct-19 16:52 35.677401 -120.998774 318 37790ft 424kts
13-Oct-19 16:53 35.770075 -121.085001 318 36024ft 404kts
13-Oct-19 16:54 35.861763 -121.170768 318 34222ft 413kts
13-Oct-19 16:55 35.953605 -121.256935 318 32361ft 419kts
13-Oct-19 16:56 36.046632 -121.344485 318 30267ft 426kts
13-Oct-19 16:57 36.148561 -121.428208 324 28143ft 425kts
13-Oct-19 16:58 36.249989 -121.506940 323 26054ft 414kts
13-Oct-19 16:59 36.348859 -121.584285 324 23985ft 411kts
13-Oct-19 17:00 36.446022 -121.660578 323 21933ft 404kts
13-Oct-19 17:01 36.540438 -121.734947 324 19898ft 386kts
13-Oct-19 17:02 36.630552 -121.806202 324 17868ft 371kts
13-Oct-19 17:03 36.717777 -121.875385 325 15892ft 357kts
13-Oct-19 17:04 36.812537 -121.914845 346 14367ft 351kts
13-Oct-19 17:05 36.909205 -121.941491 346 12830ft 345kts
13-Oct-19 17:06 37.003674 -121.972703 341 11292ft 339kts
13-Oct-19 17:07 37.095737 -122.008688 341 9725ft 322kts
13-Oct-19 17:08 37.178725 -122.041181 341 8177ft 294kts
13-Oct-19 17:09 37.256561 -122.071742 341 7156ft 290kts
13-Oct-19 17:10 37.330500 -122.100852 341 5932ft 270kts
13-Oct-19 17:11 37.400123 -122.127389 343 4721ft 252kts
13-Oct-19 17:12 37.466294 -122.150079 343 3795ft 229kts
13-Oct-19 17:13 37.523061 -122.171972 317 3087ft 192kts
13-Oct-19 17:14 37.552166 -122.219008 300 2521ft 158kts
13-Oct-19 17:15 37.573511 -122.267561 296 1655ft 151kts
13-Oct-19 17:16 37.592887 -122.313564 296 849ft 134kts
13-Oct-19 17:17 37.610034 -122.354385 296 117ft 129kts
13-Oct-19 17:18 37.618964 -122.377775 268 26ft 22kts
13-Oct-19 17:19 37.615509 -122.381189 298 30ft 12kts
13-Oct-19 17:20 37.615531 -122.382658 226 30ft 0kts
13-Oct-19 17:21 37.615531 -122.382658 226 30ft 0kts

Navigation Log

Ident Type
Flight plan parsing failed, navigation log unavailable